Norman Y. Mineta San Jose International Airport
KSJC : now visible

Airfield :











YOU CAN JOIN US ON...

 
LOGIN :

Register | Disclaimer

   EN    FR    IT 

 









Legend :    VFR   Marginal VFR   IFR   Intensive IFR   Very Intensive IFR
Visi :
Ceiling :
>= 8 km
>= 3000ft
5 to 8 km
1000 to 3000 ft
1500m to 5 km
500 to 1000 ft
800 to 1500m
200 to 500 ft
< 800m
< 200 ft
Symbols :   Thunderstorms  Fog  Heavy snow  Heavy precipitations  Wind > 20 kt






- Airport Elevation : 62 ft
- IATA code : SJC


KSJC - Norman Y. Mineta San Jose International

CURRENT METAR :
  • 071453Z 16005KT 10SM FEW013 12/07 A3007 RMK AO2 SLP183 T01170067 52007 $

EXPIRED METARs :
  • 071353Z 20004KT 10SM FEW003 FEW013 10/07 A3007 RMK AO2 SLP182 T01000067 $
  • 071253Z 17003KT 10SM FEW010 11/07 A3006 RMK AO2 SLP178 T01060067 $

TAF KSJC
Valid from the 07 at 12:00 until the 08 at 12:00 UTC


071124Z 0712/0812 32004KT P6SM FEW250
FM071400 VRB04KT P6SM SKC
FM071700 33008KT P6SM SKC
FM072100 31012G20KT P6SM SKC
FM080400 31008KT P6SM FEW250
FM081100 VRB03KT P6SM SKC
KZOA FIR / North America



MET'MAP, your aeronautical weather chart ! - Copyright ORBIFLY December 2007 - Disclaimer

ORBIFLY MET'MAP TEAM :

Programming & Development : Alexandra Zaïnal
Concept & original design : Baudouin d'Aumeries
Assistance for programming : Marc-Olivier Méhu
Technical & hardware support : Manuel Goepfert

Contact : metmap@orbifly.com




SOURCES & CREDITS :

   NOAA       Earth
Advisory